sensor_id;sensor_type;location;lat;lon;timestamp;P1;durP1;ratioP1;P2;durP2;ratioP2
39956;SDS011;48483;44.640;7.494;2022-09-09T00:00:26;8.13;;;5.57;;
39956;SDS011;48483;44.640;7.494;2022-09-09T00:02:59;8.63;;;6.57;;
39956;SDS011;48483;44.640;7.494;2022-09-09T00:05:31;7.22;;;5.13;;
39956;SDS011;48483;44.640;7.494;2022-09-09T00:08:09;8.82;;;5.40;;
39956;SDS011;48483;44.640;7.494;2022-09-09T00:10:44;9.05;;;4.93;;
39956;SDS011;48483;44.640;7.494;2022-09-09T00:13:18;5.88;;;4.93;;
39956;SDS011;48483;44.640;7.494;2022-09-09T00:15:52;11.30;;;4.80;;
39956;SDS011;48483;44.640;7.494;2022-09-09T00:18:25;8.60;;;5.13;;
39956;SDS011;48483;44.640;7.494;2022-09-09T00:20:57;5.45;;;4.40;;
39956;SDS011;48483;44.640;7.494;2022-09-09T00:23:30;5.45;;;4.35;;
39956;SDS011;48483;44.640;7.494;2022-09-09T00:26:02;7.57;;;4.47;;
39956;SDS011;48483;44.640;7.494;2022-09-09T00:28:36;5.90;;;4.63;;
39956;SDS011;48483;44.640;7.494;2022-09-09T00:31:10;6.22;;;4.07;;
39956;SDS011;48483;44.640;7.494;2022-09-09T00:33:38;6.30;;;4.40;;
39956;SDS011;48483;44.640;7.494;2022-09-09T00:36:09;6.82;;;4.22;;
39956;SDS011;48483;44.640;7.494;2022-09-09T00:38:44;8.52;;;4.57;;
39956;SDS011;48483;44.640;7.494;2022-09-09T00:41:14;6.72;;;4.00;;
39956;SDS011;48483;44.640;7.494;2022-09-09T00:43:49;7.85;;;4.20;;
39956;SDS011;48483;44.640;7.494;2022-09-09T00:46:26;6.03;;;4.25;;
39956;SDS011;48483;44.640;7.494;2022-09-09T00:49:09;7.88;;;4.65;;
39956;SDS011;48483;44.640;7.494;2022-09-09T00:51:46;6.43;;;3.85;;
39956;SDS011;48483;44.640;7.494;2022-09-09T00:54:27;7.80;;;4.80;;
39956;SDS011;48483;44.640;7.494;2022-09-09T00:57:03;6.55;;;4.18;;
39956;SDS011;48483;44.640;7.494;2022-09-09T00:59:46;9.73;;;4.75;;
39956;SDS011;48483;44.640;7.494;2022-09-09T01:02:17;10.10;;;4.95;;
39956;SDS011;48483;44.640;7.494;2022-09-09T01:04:52;5.25;;;4.43;;
39956;SDS011;48483;44.640;7.494;2022-09-09T01:07:20;6.72;;;4.65;;
39956;SDS011;48483;44.640;7.494;2022-09-09T01:09:55;6.93;;;4.25;;
39956;SDS011;48483;44.640;7.494;2022-09-09T01:12:25;6.35;;;4.07;;
39956;SDS011;48483;44.640;7.494;2022-09-09T01:15:00;6.68;;;4.22;;
39956;SDS011;48483;44.640;7.494;2022-09-09T01:17:44;5.13;;;4.53;;
39956;SDS011;48483;44.640;7.494;2022-09-09T01:20:17;8.45;;;4.97;;
39956;SDS011;48483;44.640;7.494;2022-09-09T01:22:56;5.80;;;4.43;;
39956;SDS011;48483;44.640;7.494;2022-09-09T01:28:33;7.47;;;4.50;;
39956;SDS011;48483;44.640;7.494;2022-09-09T01:31:07;7.28;;;4.38;;
39956;SDS011;48483;44.640;7.494;2022-09-09T01:33:42;6.88;;;4.28;;
39956;SDS011;48483;44.640;7.494;2022-09-09T01:36:10;5.07;;;4.45;;
39956;SDS011;48483;44.640;7.494;2022-09-09T01:38:47;6.47;;;4.65;;
39956;SDS011;48483;44.640;7.494;2022-09-09T01:41:16;7.10;;;4.82;;
39956;SDS011;48483;44.640;7.494;2022-09-09T01:43:49;7.03;;;5.30;;
39956;SDS011;48483;44.640;7.494;2022-09-09T01:46:17;8.25;;;4.70;;
39956;SDS011;48483;44.640;7.494;2022-09-09T01:48:47;8.10;;;5.13;;
39956;SDS011;48483;44.640;7.494;2022-09-09T01:51:15;7.32;;;4.97;;
39956;SDS011;48483;44.640;7.494;2022-09-09T01:53:41;6.28;;;4.30;;
39956;SDS011;48483;44.640;7.494;2022-09-09T01:56:19;8.05;;;4.57;;
39956;SDS011;48483;44.640;7.494;2022-09-09T01:59:08;6.22;;;4.70;;
39956;SDS011;48483;44.640;7.494;2022-09-09T02:01:57;6.07;;;5.13;;
39956;SDS011;48483;44.640;7.494;2022-09-09T02:04:35;6.70;;;4.35;;
39956;SDS011;48483;44.640;7.494;2022-09-09T02:07:12;6.38;;;4.50;;
39956;SDS011;48483;44.640;7.494;2022-09-09T02:09:57;8.57;;;5.00;;
39956;SDS011;48483;44.640;7.494;2022-09-09T02:12:29;8.52;;;4.55;;
39956;SDS011;48483;44.640;7.494;2022-09-09T02:15:00;6.38;;;5.00;;
39956;SDS011;48483;44.640;7.494;2022-09-09T02:17:39;8.43;;;4.80;;
39956;SDS011;48483;44.640;7.494;2022-09-09T02:20:13;7.43;;;4.63;;
39956;SDS011;48483;44.640;7.494;2022-09-09T02:22:49;6.07;;;4.47;;
39956;SDS011;48483;44.640;7.494;2022-09-09T02:25:19;8.30;;;5.10;;
39956;SDS011;48483;44.640;7.494;2022-09-09T02:27:51;9.88;;;5.75;;
39956;SDS011;48483;44.640;7.494;2022-09-09T02:30:18;8.98;;;4.88;;
39956;SDS011;48483;44.640;7.494;2022-09-09T02:32:56;8.27;;;5.28;;
39956;SDS011;48483;44.640;7.494;2022-09-09T02:35:47;6.85;;;4.97;;
39956;SDS011;48483;44.640;7.494;2022-09-09T02:38:19;7.03;;;4.93;;
39956;SDS011;48483;44.640;7.494;2022-09-09T02:40:57;5.35;;;4.22;;
39956;SDS011;48483;44.640;7.494;2022-09-09T02:43:30;7.15;;;5.00;;
39956;SDS011;48483;44.640;7.494;2022-09-09T02:46:00;7.28;;;5.35;;
39956;SDS011;48483;44.640;7.494;2022-09-09T02:48:36;8.38;;;5.57;;
39956;SDS011;48483;44.640;7.494;2022-09-09T02:51:15;11.45;;;4.70;;
39956;SDS011;48483;44.640;7.494;2022-09-09T02:53:47;6.05;;;4.93;;
39956;SDS011;48483;44.640;7.494;2022-09-09T02:56:22;8.30;;;4.60;;
39956;SDS011;48483;44.640;7.494;2022-09-09T02:58:56;10.77;;;5.57;;
39956;SDS011;48483;44.640;7.494;2022-09-09T03:01:24;8.27;;;4.95;;
39956;SDS011;48483;44.640;7.494;2022-09-09T03:03:51;8.25;;;4.18;;
39956;SDS011;48483;44.640;7.494;2022-09-09T03:06:18;8.23;;;5.20;;
39956;SDS011;48483;44.640;7.494;2022-09-09T03:08:50;7.88;;;4.93;;
39956;SDS011;48483;44.640;7.494;2022-09-09T03:11:23;4.80;;;3.97;;
39956;SDS011;48483;44.640;7.494;2022-09-09T03:13:49;6.97;;;5.03;;
39956;SDS011;48483;44.640;7.494;2022-09-09T03:16:18;7.28;;;5.30;;
39956;SDS011;48483;44.640;7.494;2022-09-09T03:18:48;7.15;;;4.60;;
39956;SDS011;48483;44.640;7.494;2022-09-09T03:21:15;5.20;;;4.20;;
39956;SDS011;48483;44.640;7.494;2022-09-09T03:23:42;7.90;;;4.55;;
39956;SDS011;48483;44.640;7.494;2022-09-09T03:26:09;6.50;;;4.70;;
39956;SDS011;48483;44.640;7.494;2022-09-09T03:28:43;11.10;;;5.35;;
39956;SDS011;48483;44.640;7.494;2022-09-09T03:31:11;5.93;;;4.72;;
39956;SDS011;48483;44.640;7.494;2022-09-09T03:33:43;6.30;;;4.53;;
39956;SDS011;48483;44.640;7.494;2022-09-09T03:36:13;5.93;;;4.45;;
39956;SDS011;48483;44.640;7.494;2022-09-09T03:38:40;9.30;;;4.95;;
39956;SDS011;48483;44.640;7.494;2022-09-09T03:41:07;8.00;;;5.15;;
39956;SDS011;48483;44.640;7.494;2022-09-09T03:43:35;6.70;;;4.43;;
39956;SDS011;48483;44.640;7.494;2022-09-09T03:46:02;7.80;;;4.35;;
39956;SDS011;48483;44.640;7.494;2022-09-09T03:48:29;7.07;;;4.53;;
39956;SDS011;48483;44.640;7.494;2022-09-09T03:50:57;5.57;;;4.45;;
39956;SDS011;48483;44.640;7.494;2022-09-09T03:55:54;7.68;;;5.80;;
39956;SDS011;48483;44.640;7.494;2022-09-09T03:58:24;8.75;;;5.10;;
39956;SDS011;48483;44.640;7.494;2022-09-09T04:00:54;5.73;;;5.13;;
39956;SDS011;48483;44.640;7.494;2022-09-09T04:03:22;8.98;;;5.40;;
39956;SDS011;48483;44.640;7.494;2022-09-09T04:05:50;8.38;;;5.10;;
39956;SDS011;48483;44.640;7.494;2022-09-09T04:08:19;7.07;;;5.10;;
39956;SDS011;48483;44.640;7.494;2022-09-09T04:10:48;6.28;;;5.00;;
39956;SDS011;48483;44.640;7.494;2022-09-09T04:13:16;7.65;;;5.10;;
39956;SDS011;48483;44.640;7.494;2022-09-09T04:15:49;8.50;;;5.07;;
39956;SDS011;48483;44.640;7.494;2022-09-09T04:18:17;8.45;;;5.35;;
39956;SDS011;48483;44.640;7.494;2022-09-09T04:20:45;6.20;;;4.82;;
39956;SDS011;48483;44.640;7.494;2022-09-09T04:23:13;9.10;;;6.15;;
39956;SDS011;48483;44.640;7.494;2022-09-09T04:25:44;8.65;;;6.43;;
39956;SDS011;48483;44.640;7.494;2022-09-09T04:28:13;7.78;;;5.65;;
39956;SDS011;48483;44.640;7.494;2022-09-09T04:30:40;6.53;;;5.50;;
39956;SDS011;48483;44.640;7.494;2022-09-09T04:33:07;6.00;;;5.40;;
39956;SDS011;48483;44.640;7.494;2022-09-09T04:35:37;7.00;;;5.25;;
39956;SDS011;48483;44.640;7.494;2022-09-09T04:38:04;6.95;;;5.28;;
39956;SDS011;48483;44.640;7.494;2022-09-09T04:40:35;6.80;;;5.30;;
39956;SDS011;48483;44.640;7.494;2022-09-09T04:43:03;6.95;;;4.78;;
39956;SDS011;48483;44.640;7.494;2022-09-09T04:45:31;6.15;;;4.85;;
39956;SDS011;48483;44.640;7.494;2022-09-09T04:47:58;8.43;;;6.03;;
39956;SDS011;48483;44.640;7.494;2022-09-09T04:50:25;7.53;;;5.13;;
39956;SDS011;48483;44.640;7.494;2022-09-09T04:52:59;11.52;;;5.47;;
39956;SDS011;48483;44.640;7.494;2022-09-09T04:55:27;13.55;;;5.28;;
39956;SDS011;48483;44.640;7.494;2022-09-09T04:57:54;6.78;;;5.55;;
39956;SDS011;48483;44.640;7.494;2022-09-09T05:00:22;7.07;;;5.00;;
39956;SDS011;48483;44.640;7.494;2022-09-09T05:02:49;10.02;;;4.97;;
39956;SDS011;48483;44.640;7.494;2022-09-09T05:05:17;12.63;;;4.55;;
39956;SDS011;48483;44.640;7.494;2022-09-09T05:07:46;5.85;;;4.90;;
39956;SDS011;48483;44.640;7.494;2022-09-09T05:10:14;7.75;;;5.68;;
39956;SDS011;48483;44.640;7.494;2022-09-09T05:12:51;6.68;;;5.28;;
39956;SDS011;48483;44.640;7.494;2022-09-09T05:15:19;11.73;;;5.43;;
39956;SDS011;48483;44.640;7.494;2022-09-09T05:17:48;6.05;;;5.38;;
39956;SDS011;48483;44.640;7.494;2022-09-09T05:20:15;9.50;;;6.18;;
39956;SDS011;48483;44.640;7.494;2022-09-09T05:22:42;9.02;;;5.38;;
39956;SDS011;48483;44.640;7.494;2022-09-09T05:25:09;7.78;;;5.30;;
39956;SDS011;48483;44.640;7.494;2022-09-09T05:27:36;9.88;;;6.43;;
39956;SDS011;48483;44.640;7.494;2022-09-09T05:30:04;7.45;;;6.10;;
39956;SDS011;48483;44.640;7.494;2022-09-09T05:32:31;8.90;;;5.20;;
39956;SDS011;48483;44.640;7.494;2022-09-09T05:35:01;6.38;;;5.05;;
39956;SDS011;48483;44.640;7.494;2022-09-09T05:37:28;8.38;;;5.50;;
39956;SDS011;48483;44.640;7.494;2022-09-09T05:39:57;6.63;;;5.05;;
39956;SDS011;48483;44.640;7.494;2022-09-09T05:42:24;8.65;;;5.45;;
39956;SDS011;48483;44.640;7.494;2022-09-09T05:44:50;8.32;;;5.07;;
39956;SDS011;48483;44.640;7.494;2022-09-09T05:47:20;6.45;;;5.40;;
39956;SDS011;48483;44.640;7.494;2022-09-09T05:49:48;9.75;;;5.18;;
39956;SDS011;48483;44.640;7.494;2022-09-09T05:52:17;8.05;;;4.78;;
39956;SDS011;48483;44.640;7.494;2022-09-09T05:54:43;6.78;;;5.10;;
39956;SDS011;48483;44.640;7.494;2022-09-09T05:57:10;9.57;;;5.22;;
39956;SDS011;48483;44.640;7.494;2022-09-09T05:59:37;8.88;;;5.07;;
39956;SDS011;48483;44.640;7.494;2022-09-09T06:02:04;8.30;;;4.82;;
39956;SDS011;48483;44.640;7.494;2022-09-09T06:04:35;6.28;;;4.70;;
39956;SDS011;48483;44.640;7.494;2022-09-09T06:07:03;7.55;;;5.00;;
39956;SDS011;48483;44.640;7.494;2022-09-09T06:09:32;6.30;;;5.45;;
39956;SDS011;48483;44.640;7.494;2022-09-09T06:11:59;13.82;;;5.35;;
39956;SDS011;48483;44.640;7.494;2022-09-09T06:14:26;8.48;;;4.78;;
39956;SDS011;48483;44.640;7.494;2022-09-09T06:16:55;5.80;;;3.97;;
39956;SDS011;48483;44.640;7.494;2022-09-09T06:19:26;6.78;;;4.40;;
39956;SDS011;48483;44.640;7.494;2022-09-09T06:21:55;7.47;;;4.13;;
39956;SDS011;48483;44.640;7.494;2022-09-09T06:24:22;7.75;;;3.67;;
39956;SDS011;48483;44.640;7.494;2022-09-09T06:26:50;6.15;;;4.13;;
39956;SDS011;48483;44.640;7.494;2022-09-09T06:29:23;7.50;;;4.50;;
39956;SDS011;48483;44.640;7.494;2022-09-09T06:31:51;6.60;;;4.15;;
39956;SDS011;48483;44.640;7.494;2022-09-09T06:34:22;6.70;;;4.55;;
39956;SDS011;48483;44.640;7.494;2022-09-09T06:36:57;7.43;;;4.85;;
39956;SDS011;48483;44.640;7.494;2022-09-09T06:39:24;8.18;;;4.63;;
39956;SDS011;48483;44.640;7.494;2022-09-09T06:41:53;6.22;;;4.93;;
39956;SDS011;48483;44.640;7.494;2022-09-09T06:44:38;9.13;;;4.97;;
39956;SDS011;48483;44.640;7.494;2022-09-09T06:47:08;5.95;;;4.03;;
39956;SDS011;48483;44.640;7.494;2022-09-09T06:49:38;7.47;;;5.07;;
39956;SDS011;48483;44.640;7.494;2022-09-09T06:52:08;5.55;;;4.82;;
39956;SDS011;48483;44.640;7.494;2022-09-09T06:54:35;9.13;;;5.07;;
39956;SDS011;48483;44.640;7.494;2022-09-09T06:57:05;6.55;;;5.63;;
39956;SDS011;48483;44.640;7.494;2022-09-09T06:59:34;8.43;;;6.82;;
39956;SDS011;48483;44.640;7.494;2022-09-09T07:02:00;11.07;;;5.28;;
39956;SDS011;48483;44.640;7.494;2022-09-09T07:04:28;7.65;;;5.60;;
39956;SDS011;48483;44.640;7.494;2022-09-09T07:06:55;9.23;;;6.18;;
39956;SDS011;48483;44.640;7.494;2022-09-09T07:09:24;11.13;;;6.30;;
39956;SDS011;48483;44.640;7.494;2022-09-09T07:11:52;9.45;;;6.95;;
39956;SDS011;48483;44.640;7.494;2022-09-09T07:14:22;9.02;;;6.93;;
39956;SDS011;48483;44.640;7.494;2022-09-09T07:16:55;11.10;;;7.63;;
39956;SDS011;48483;44.640;7.494;2022-09-09T07:19:22;10.02;;;7.65;;
39956;SDS011;48483;44.640;7.494;2022-09-09T07:21:51;8.63;;;7.77;;
39956;SDS011;48483;44.640;7.494;2022-09-09T07:24:21;10.45;;;7.38;;
39956;SDS011;48483;44.640;7.494;2022-09-09T07:26:48;10.43;;;7.53;;
39956;SDS011;48483;44.640;7.494;2022-09-09T07:29:15;9.20;;;6.70;;
39956;SDS011;48483;44.640;7.494;2022-09-09T07:31:43;11.93;;;7.05;;
39956;SDS011;48483;44.640;7.494;2022-09-09T07:34:13;14.70;;;6.55;;
39956;SDS011;48483;44.640;7.494;2022-09-09T07:36:40;13.80;;;8.73;;
39956;SDS011;48483;44.640;7.494;2022-09-09T07:39:12;10.05;;;7.30;;
39956;SDS011;48483;44.640;7.494;2022-09-09T07:41:43;9.65;;;8.65;;
39956;SDS011;48483;44.640;7.494;2022-09-09T07:44:12;11.32;;;8.63;;
39956;SDS011;48483;44.640;7.494;2022-09-09T07:46:41;13.80;;;8.57;;
39956;SDS011;48483;44.640;7.494;2022-09-09T07:49:11;12.15;;;9.05;;
39956;SDS011;48483;44.640;7.494;2022-09-09T07:51:39;9.30;;;8.40;;
39956;SDS011;48483;44.640;7.494;2022-09-09T07:54:08;14.00;;;9.25;;
39956;SDS011;48483;44.640;7.494;2022-09-09T07:56:39;9.75;;;7.65;;
39956;SDS011;48483;44.640;7.494;2022-09-09T07:59:07;8.95;;;7.57;;
39956;SDS011;48483;44.640;7.494;2022-09-09T08:01:37;11.40;;;8.20;;
39956;SDS011;48483;44.640;7.494;2022-09-09T08:04:08;10.70;;;7.50;;
39956;SDS011;48483;44.640;7.494;2022-09-09T08:06:38;9.75;;;7.80;;
39956;SDS011;48483;44.640;7.494;2022-09-09T08:09:08;11.30;;;8.48;;
39956;SDS011;48483;44.640;7.494;2022-09-09T08:11:36;18.52;;;9.35;;
39956;SDS011;48483;44.640;7.494;2022-09-09T08:14:04;10.43;;;8.75;;
39956;SDS011;48483;44.640;7.494;2022-09-09T08:16:35;11.90;;;8.45;;
39956;SDS011;48483;44.640;7.494;2022-09-09T08:19:02;10.73;;;8.95;;
39956;SDS011;48483;44.640;7.494;2022-09-09T08:21:30;10.90;;;9.52;;
39956;SDS011;48483;44.640;7.494;2022-09-09T08:24:01;12.57;;;8.47;;
39956;SDS011;48483;44.640;7.494;2022-09-09T08:26:30;9.70;;;7.75;;
39956;SDS011;48483;44.640;7.494;2022-09-09T08:28:57;9.50;;;7.65;;
39956;SDS011;48483;44.640;7.494;2022-09-09T08:31:27;8.30;;;7.38;;
39956;SDS011;48483;44.640;7.494;2022-09-09T08:33:55;10.73;;;8.20;;
39956;SDS011;48483;44.640;7.494;2022-09-09T08:36:23;9.27;;;6.78;;
39956;SDS011;48483;44.640;7.494;2022-09-09T08:38:52;11.02;;;7.55;;
39956;SDS011;48483;44.640;7.494;2022-09-09T08:41:42;13.20;;;8.32;;
39956;SDS011;48483;44.640;7.494;2022-09-09T08:44:21;9.20;;;7.20;;
39956;SDS011;48483;44.640;7.494;2022-09-09T08:46:56;10.40;;;7.28;;
39956;SDS011;48483;44.640;7.494;2022-09-09T08:49:38;11.73;;;8.75;;
39956;SDS011;48483;44.640;7.494;2022-09-09T08:52:16;10.32;;;7.90;;
39956;SDS011;48483;44.640;7.494;2022-09-09T08:57:14;11.23;;;8.73;;
39956;SDS011;48483;44.640;7.494;2022-09-09T08:59:47;9.73;;;8.70;;
39956;SDS011;48483;44.640;7.494;2022-09-09T09:02:17;11.13;;;6.85;;
39956;SDS011;48483;44.640;7.494;2022-09-09T09:04:55;8.82;;;7.25;;
39956;SDS011;48483;44.640;7.494;2022-09-09T09:07:31;14.15;;;8.68;;
39956;SDS011;48483;44.640;7.494;2022-09-09T09:10:09;10.05;;;9.05;;
39956;SDS011;48483;44.640;7.494;2022-09-09T09:12:46;12.98;;;8.60;;
39956;SDS011;48483;44.640;7.494;2022-09-09T09:15:18;10.63;;;7.75;;
39956;SDS011;48483;44.640;7.494;2022-09-09T09:17:49;10.25;;;8.32;;
39956;SDS011;48483;44.640;7.494;2022-09-09T09:20:17;11.75;;;7.35;;
39956;SDS011;48483;44.640;7.494;2022-09-09T09:22:50;8.43;;;7.15;;
39956;SDS011;48483;44.640;7.494;2022-09-09T09:25:20;11.85;;;6.50;;
39956;SDS011;48483;44.640;7.494;2022-09-09T09:27:52;12.43;;;6.50;;
39956;SDS011;48483;44.640;7.494;2022-09-09T09:30:34;10.52;;;6.85;;
39956;SDS011;48483;44.640;7.494;2022-09-09T09:33:08;8.68;;;6.20;;
39956;SDS011;48483;44.640;7.494;2022-09-09T09:35:43;8.02;;;6.00;;
39956;SDS011;48483;44.640;7.494;2022-09-09T09:38:16;6.45;;;5.53;;
39956;SDS011;48483;44.640;7.494;2022-09-09T09:40:51;9.02;;;6.20;;
39956;SDS011;48483;44.640;7.494;2022-09-09T09:43:26;12.30;;;7.85;;
39956;SDS011;48483;44.640;7.494;2022-09-09T09:45:54;11.05;;;8.80;;
39956;SDS011;48483;44.640;7.494;2022-09-09T09:48:24;10.27;;;7.70;;
39956;SDS011;48483;44.640;7.494;2022-09-09T09:50:53;10.25;;;7.50;;
39956;SDS011;48483;44.640;7.494;2022-09-09T09:53:23;13.23;;;7.63;;
39956;SDS011;48483;44.640;7.494;2022-09-09T09:55:54;9.35;;;7.32;;
39956;SDS011;48483;44.640;7.494;2022-09-09T09:58:23;10.80;;;7.82;;
39956;SDS011;48483;44.640;7.494;2022-09-09T10:00:54;11.32;;;7.97;;
39956;SDS011;48483;44.640;7.494;2022-09-09T10:03:26;9.73;;;6.78;;
39956;SDS011;48483;44.640;7.494;2022-09-09T10:05:55;9.95;;;6.35;;
39956;SDS011;48483;44.640;7.494;2022-09-09T10:08:22;11.18;;;6.40;;
39956;SDS011;48483;44.640;7.494;2022-09-09T10:10:53;10.38;;;5.80;;
39956;SDS011;48483;44.640;7.494;2022-09-09T10:13:35;8.32;;;5.15;;
39956;SDS011;48483;44.640;7.494;2022-09-09T10:16:18;5.45;;;4.30;;
39956;SDS011;48483;44.640;7.494;2022-09-09T10:18:58;6.10;;;3.78;;
39956;SDS011;48483;44.640;7.494;2022-09-09T10:21:33;5.53;;;3.95;;
39956;SDS011;48483;44.640;7.494;2022-09-09T10:24:16;7.05;;;5.50;;
39956;SDS011;48483;44.640;7.494;2022-09-09T10:27:02;9.25;;;6.70;;
39956;SDS011;48483;44.640;7.494;2022-09-09T10:29:40;6.50;;;5.07;;
39956;SDS011;48483;44.640;7.494;2022-09-09T10:32:30;9.60;;;5.18;;
39956;SDS011;48483;44.640;7.494;2022-09-09T10:35:09;6.93;;;4.00;;
39956;SDS011;48483;44.640;7.494;2022-09-09T10:37:46;5.50;;;3.83;;
39956;SDS011;48483;44.640;7.494;2022-09-09T10:40:29;4.80;;;2.35;;
39956;SDS011;48483;44.640;7.494;2022-09-09T10:43:01;7.22;;;2.67;;
39956;SDS011;48483;44.640;7.494;2022-09-09T10:45:41;3.17;;;2.30;;
39956;SDS011;48483;44.640;7.494;2022-09-09T10:48:18;4.68;;;2.40;;
39956;SDS011;48483;44.640;7.494;2022-09-09T10:51:12;9.32;;;2.92;;
39956;SDS011;48483;44.640;7.494;2022-09-09T10:53:50;3.85;;;1.92;;
39956;SDS011;48483;44.640;7.494;2022-09-09T10:56:29;8.20;;;2.38;;
39956;SDS011;48483;44.640;7.494;2022-09-09T10:58:56;6.30;;;2.30;;
39956;SDS011;48483;44.640;7.494;2022-09-09T11:01:31;3.95;;;2.28;;
39956;SDS011;48483;44.640;7.494;2022-09-09T11:04:03;6.15;;;2.33;;
39956;SDS011;48483;44.640;7.494;2022-09-09T11:06:37;6.40;;;2.10;;
39956;SDS011;48483;44.640;7.494;2022-09-09T11:09:08;3.42;;;2.00;;
39956;SDS011;48483;44.640;7.494;2022-09-09T11:11:44;4.50;;;1.83;;
39956;SDS011;48483;44.640;7.494;2022-09-09T11:14:19;5.32;;;1.85;;
39956;SDS011;48483;44.640;7.494;2022-09-09T11:16:55;3.72;;;1.88;;
39956;SDS011;48483;44.640;7.494;2022-09-09T11:19:24;4.70;;;1.80;;
39956;SDS011;48483;44.640;7.494;2022-09-09T11:21:55;4.70;;;1.50;;
39956;SDS011;48483;44.640;7.494;2022-09-09T11:24:26;4.45;;;1.75;;
39956;SDS011;48483;44.640;7.494;2022-09-09T11:26:58;4.30;;;2.17;;
39956;SDS011;48483;44.640;7.494;2022-09-09T11:35:58;4.60;;;2.03;;
39956;SDS011;48483;44.640;7.494;2022-09-09T11:38:38;4.43;;;2.40;;
39956;SDS011;48483;44.640;7.494;2022-09-09T11:41:11;5.85;;;2.92;;
39956;SDS011;48483;44.640;7.494;2022-09-09T11:43:39;3.78;;;2.03;;
39956;SDS011;48483;44.640;7.494;2022-09-09T11:46:08;5.60;;;2.38;;
39956;SDS011;48483;44.640;7.494;2022-09-09T11:48:38;5.65;;;3.22;;
39956;SDS011;48483;44.640;7.494;2022-09-09T11:51:09;5.65;;;3.90;;
39956;SDS011;48483;44.640;7.494;2022-09-09T11:53:47;4.97;;;2.72;;
39956;SDS011;48483;44.640;7.494;2022-09-09T11:56:23;16.40;;;14.75;;
39956;SDS011;48483;44.640;7.494;2022-09-09T11:58:56;6.75;;;5.28;;
39956;SDS011;48483;44.640;7.494;2022-09-09T12:01:30;13.75;;;10.70;;
39956;SDS011;48483;44.640;7.494;2022-09-09T12:06:59;23.50;;;14.73;;
39956;SDS011;48483;44.640;7.494;2022-09-09T12:09:30;10.83;;;7.63;;
39956;SDS011;48483;44.640;7.494;2022-09-09T12:12:25;7.13;;;5.32;;
39956;SDS011;48483;44.640;7.494;2022-09-09T12:14:55;6.35;;;4.50;;
39956;SDS011;48483;44.640;7.494;2022-09-09T12:17:27;8.18;;;5.25;;
39956;SDS011;48483;44.640;7.494;2022-09-09T12:20:03;6.18;;;5.10;;
39956;SDS011;48483;44.640;7.494;2022-09-09T12:25:09;4.65;;;3.10;;
39956;SDS011;48483;44.640;7.494;2022-09-09T12:27:46;5.85;;;2.88;;
39956;SDS011;48483;44.640;7.494;2022-09-09T12:30:23;3.30;;;1.90;;
39956;SDS011;48483;44.640;7.494;2022-09-09T12:33:01;3.95;;;1.65;;
39956;SDS011;48483;44.640;7.494;2022-09-09T12:35:29;4.95;;;2.00;;
39956;SDS011;48483;44.640;7.494;2022-09-09T12:37:57;4.07;;;1.48;;
39956;SDS011;48483;44.640;7.494;2022-09-09T12:40:27;4.75;;;1.70;;
39956;SDS011;48483;44.640;7.494;2022-09-09T12:42:55;1.80;;;1.35;;
39956;SDS011;48483;44.640;7.494;2022-09-09T12:45:22;2.25;;;1.40;;
39956;SDS011;48483;44.640;7.494;2022-09-09T12:47:54;5.05;;;2.45;;
39956;SDS011;48483;44.640;7.494;2022-09-09T12:50:24;4.65;;;1.80;;
39956;SDS011;48483;44.640;7.494;2022-09-09T12:52:55;2.17;;;1.50;;
39956;SDS011;48483;44.640;7.494;2022-09-09T12:55:25;1.92;;;1.15;;
39956;SDS011;48483;44.640;7.494;2022-09-09T12:57:56;2.78;;;1.23;;
39956;SDS011;48483;44.640;7.494;2022-09-09T13:00:25;3.25;;;1.17;;
39956;SDS011;48483;44.640;7.494;2022-09-09T13:02:54;7.10;;;1.40;;
39956;SDS011;48483;44.640;7.494;2022-09-09T13:05:23;2.03;;;1.60;;
39956;SDS011;48483;44.640;7.494;2022-09-09T13:07:59;5.20;;;1.58;;
39956;SDS011;48483;44.640;7.494;2022-09-09T13:10:30;4.80;;;1.80;;
39956;SDS011;48483;44.640;7.494;2022-09-09T13:12:59;2.50;;;1.88;;
39956;SDS011;48483;44.640;7.494;2022-09-09T13:15:26;3.60;;;1.83;;
39956;SDS011;48483;44.640;7.494;2022-09-09T13:17:55;1.85;;;1.30;;
39956;SDS011;48483;44.640;7.494;2022-09-09T13:20:24;3.65;;;1.45;;
39956;SDS011;48483;44.640;7.494;2022-09-09T13:22:51;1.35;;;1.10;;
39956;SDS011;48483;44.640;7.494;2022-09-09T13:25:23;3.55;;;1.20;;
39956;SDS011;48483;44.640;7.494;2022-09-09T13:27:56;4.40;;;1.55;;
39956;SDS011;48483;44.640;7.494;2022-09-09T13:30:28;2.35;;;1.13;;
39956;SDS011;48483;44.640;7.494;2022-09-09T13:33:05;3.00;;;1.38;;
39956;SDS011;48483;44.640;7.494;2022-09-09T13:35:46;2.75;;;1.58;;
39956;SDS011;48483;44.640;7.494;2022-09-09T13:40:52;3.42;;;1.13;;
39956;SDS011;48483;44.640;7.494;2022-09-09T13:43:23;2.88;;;1.35;;
39956;SDS011;48483;44.640;7.494;2022-09-09T13:45:53;1.88;;;1.30;;
39956;SDS011;48483;44.640;7.494;2022-09-09T13:48:22;3.80;;;1.10;;
39956;SDS011;48483;44.640;7.494;2022-09-09T13:50:53;1.35;;;0.90;;
39956;SDS011;48483;44.640;7.494;2022-09-09T13:53:21;1.13;;;1.02;;
39956;SDS011;48483;44.640;7.494;2022-09-09T13:55:48;3.88;;;1.40;;
39956;SDS011;48483;44.640;7.494;2022-09-09T13:58:18;4.25;;;1.27;;
39956;SDS011;48483;44.640;7.494;2022-09-09T14:00:45;1.25;;;1.00;;
39956;SDS011;48483;44.640;7.494;2022-09-09T14:03:12;3.47;;;0.85;;
39956;SDS011;48483;44.640;7.494;2022-09-09T14:05:40;1.85;;;0.80;;
39956;SDS011;48483;44.640;7.494;2022-09-09T14:08:10;1.75;;;1.10;;
39956;SDS011;48483;44.640;7.494;2022-09-09T14:10:42;4.45;;;0.90;;
39956;SDS011;48483;44.640;7.494;2022-09-09T14:13:08;1.92;;;0.80;;
39956;SDS011;48483;44.640;7.494;2022-09-09T14:15:36;1.70;;;0.90;;
39956;SDS011;48483;44.640;7.494;2022-09-09T14:18:03;2.63;;;1.13;;
39956;SDS011;48483;44.640;7.494;2022-09-09T14:20:30;2.42;;;1.10;;
39956;SDS011;48483;44.640;7.494;2022-09-09T14:22:57;1.52;;;0.70;;
39956;SDS011;48483;44.640;7.494;2022-09-09T14:25:24;4.10;;;0.98;;
39956;SDS011;48483;44.640;7.494;2022-09-09T14:27:51;1.40;;;0.50;;
39956;SDS011;48483;44.640;7.494;2022-09-09T14:30:18;1.25;;;0.60;;
39956;SDS011;48483;44.640;7.494;2022-09-09T14:32:47;0.75;;;0.52;;
39956;SDS011;48483;44.640;7.494;2022-09-09T14:35:14;1.48;;;0.60;;
39956;SDS011;48483;44.640;7.494;2022-09-09T14:37:41;1.83;;;1.67;;
39956;SDS011;48483;44.640;7.494;2022-09-09T14:40:08;1.00;;;0.60;;
39956;SDS011;48483;44.640;7.494;2022-09-09T14:42:35;1.13;;;0.50;;
39956;SDS011;48483;44.640;7.494;2022-09-09T14:45:01;0.85;;;0.68;;
39956;SDS011;48483;44.640;7.494;2022-09-09T14:47:28;0.85;;;0.60;;
39956;SDS011;48483;44.640;7.494;2022-09-09T14:49:57;1.95;;;0.65;;
39956;SDS011;48483;44.640;7.494;2022-09-09T14:52:24;0.90;;;0.50;;
39956;SDS011;48483;44.640;7.494;2022-09-09T14:54:51;2.85;;;0.50;;
39956;SDS011;48483;44.640;7.494;2022-09-09T14:57:18;0.50;;;0.40;;
39956;SDS011;48483;44.640;7.494;2022-09-09T14:59:44;0.52;;;0.30;;
39956;SDS011;48483;44.640;7.494;2022-09-09T15:02:11;9.90;;;1.95;;
39956;SDS011;48483;44.640;7.494;2022-09-09T15:04:39;0.98;;;0.50;;
39956;SDS011;48483;44.640;7.494;2022-09-09T15:07:07;1.23;;;0.40;;
39956;SDS011;48483;44.640;7.494;2022-09-09T15:09:34;0.25;;;0.22;;
39956;SDS011;48483;44.640;7.494;2022-09-09T15:12:03;0.63;;;0.40;;
39956;SDS011;48483;44.640;7.494;2022-09-09T15:14:30;1.10;;;0.40;;
39956;SDS011;48483;44.640;7.494;2022-09-09T15:16:57;0.70;;;0.40;;
39956;SDS011;48483;44.640;7.494;2022-09-09T15:19:24;0.45;;;0.30;;
39956;SDS011;48483;44.640;7.494;2022-09-09T15:21:51;0.85;;;0.47;;
39956;SDS011;48483;44.640;7.494;2022-09-09T15:24:19;1.27;;;0.52;;
39956;SDS011;48483;44.640;7.494;2022-09-09T15:26:46;2.25;;;0.30;;
39956;SDS011;48483;44.640;7.494;2022-09-09T15:29:12;0.43;;;0.28;;
39956;SDS011;48483;44.640;7.494;2022-09-09T15:31:39;0.68;;;0.50;;